createdAt,value
2022-12-11T00:02:35.000Z,99048.42
2022-12-11T00:07:35.000Z,99047.42
2022-12-11T00:12:35.000Z,99057.07
2022-12-11T00:17:34.000Z,99063.45
2022-12-11T00:22:35.000Z,99060.02
2022-12-11T00:27:35.000Z,99051.22
2022-12-11T00:32:38.000Z,99041.86
2022-12-11T00:42:35.000Z,99046.74
2022-12-11T00:47:34.000Z,99046.74
2022-12-11T00:52:35.000Z,99050.77
2022-12-11T00:57:35.000Z,99046.26
2022-12-11T01:02:35.000Z,99048.78
2022-12-11T01:07:35.000Z,99048.49
2022-12-11T01:12:34.000Z,99047.9
2022-12-11T01:22:35.000Z,99067.92
2022-12-11T01:27:34.000Z,99067.84
2022-12-11T01:32:35.000Z,99075.72
2022-12-11T01:37:35.000Z,99075.72
2022-12-11T01:42:35.000Z,99063.67
2022-12-11T01:47:35.000Z,99063.98
2022-12-11T01:52:35.000Z,99068.96
2022-12-11T01:57:34.000Z,99071.56
2022-12-11T02:02:34.000Z,99075.11
2022-12-11T02:07:35.000Z,99069.57
2022-12-11T02:17:35.000Z,99076.52
2022-12-11T02:22:35.000Z,99079.77
2022-12-11T02:27:35.000Z,99077.45
2022-12-11T02:32:35.000Z,99077.45
2022-12-11T02:37:34.000Z,99077.21
2022-12-11T02:42:35.000Z,99080.22
2022-12-11T02:47:35.000Z,99086.88
2022-12-11T02:52:34.000Z,99101.96
2022-12-11T03:02:35.000Z,99123.17
2022-12-11T03:07:35.000Z,99127.44
2022-12-11T03:12:34.000Z,99127.85
2022-12-11T03:17:35.000Z,99120.67
2022-12-11T03:22:35.000Z,99136.42
2022-12-11T03:27:34.000Z,99136.42
2022-12-11T03:32:35.000Z,99143.73
2022-12-11T03:37:34.000Z,99153.73
2022-12-11T03:42:34.000Z,99165.01
2022-12-11T03:47:35.000Z,99168.5
2022-12-11T03:52:35.000Z,99169.59
2022-12-11T03:57:35.000Z,99172.1
2022-12-11T04:02:35.000Z,99179.7
2022-12-11T04:07:35.000Z,99186.62
2022-12-11T04:12:35.000Z,99191.2
2022-12-11T04:17:35.000Z,99192.63
2022-12-11T04:22:35.000Z,99203.66
2022-12-11T04:27:35.000Z,99213.5
2022-12-11T04:32:34.000Z,99212.54
2022-12-11T04:42:34.000Z,99212.75
2022-12-11T04:47:35.000Z,99218.52
2022-12-11T04:52:35.000Z,99218.6
2022-12-11T04:57:35.000Z,99224.51
2022-12-11T05:02:35.000Z,99219.71
2022-12-11T05:07:34.000Z,99226.54
2022-12-11T05:12:35.000Z,99229.25
2022-12-11T05:17:35.000Z,99230.59
2022-12-11T05:27:34.000Z,99230.76
2022-12-11T05:32:34.000Z,99232.83
2022-12-11T05:37:34.000Z,99245.55
2022-12-11T05:42:39.000Z,99257.09
2022-12-11T05:47:35.000Z,99259.03
2022-12-11T05:52:34.000Z,99270.02
2022-12-11T05:57:35.000Z,99279.48
2022-12-11T06:02:35.000Z,99279.48
2022-12-11T06:07:34.000Z,99296.85
2022-12-11T06:12:35.000Z,99310.36
2022-12-11T06:17:34.000Z,99320.02
2022-12-11T06:22:35.000Z,99332.36
2022-12-11T06:27:34.000Z,99350.01
2022-12-11T06:32:35.000Z,99362.62
2022-12-11T06:37:35.000Z,99366.06
2022-12-11T06:42:34.000Z,99369.16
2022-12-11T06:52:35.000Z,99364.81
2022-12-11T06:57:34.000Z,99367.91
2022-12-11T07:02:35.000Z,99371.44
2022-12-11T07:07:34.000Z,99372.74
2022-12-11T07:12:35.000Z,99370.13
2022-12-11T07:17:34.000Z,99366.95
2022-12-11T07:22:35.000Z,99372.1
2022-12-11T07:27:34.000Z,99384.57
2022-12-11T07:32:34.000Z,99402.86
2022-12-11T07:37:34.000Z,99402.86
2022-12-11T07:42:34.000Z,99410.93
2022-12-11T07:52:34.000Z,99409.48
2022-12-11T07:57:35.000Z,99411.6
2022-12-11T08:02:34.000Z,99416.81
2022-12-11T08:07:34.000Z,99413.66
2022-12-11T08:12:35.000Z,99406.34
2022-12-11T08:17:41.000Z,99419.97
2022-12-11T08:22:35.000Z,99439.85
2022-12-11T08:27:34.000Z,99438.52
2022-12-11T08:32:35.000Z,99430.71
2022-12-11T08:37:34.000Z,99428.61
2022-12-11T08:42:35.000Z,99434.38
2022-12-11T08:47:34.000Z,99434.38
2022-12-11T08:52:34.000Z,99445.94
2022-12-11T08:57:35.000Z,99453.34
2022-12-11T09:02:35.000Z,99456.09
2022-12-11T09:07:34.000Z,99455.62
2022-12-11T09:12:35.000Z,99469.24
2022-12-11T09:17:35.000Z,99483.73
2022-12-11T09:22:35.000Z,99491.74
2022-12-11T09:27:34.000Z,99484.56
2022-12-11T09:37:34.000Z,99499.03
2022-12-11T09:42:34.000Z,99509.42
2022-12-11T09:47:34.000Z,99516.56
2022-12-11T09:52:35.000Z,99516.56
2022-12-11T09:57:34.000Z,99513.57
2022-12-11T10:02:35.000Z,99524.04
2022-12-11T10:07:35.000Z,99525.37
2022-12-11T10:12:34.000Z,99517.43
2022-12-11T10:17:35.000Z,99534.69
2022-12-11T10:22:34.000Z,99531.81
2022-12-11T10:27:35.000Z,99523.78
2022-12-11T10:32:34.000Z,99523.28
2022-12-11T10:37:35.000Z,99530.7
2022-12-11T10:42:34.000Z,99521.67
2022-12-11T10:47:34.000Z,99514.42
2022-12-11T10:52:35.000Z,99511.2
2022-12-11T10:57:34.000Z,99526.24
2022-12-11T11:02:35.000Z,99526.59
2022-12-11T11:07:34.000Z,99526.59
2022-12-11T11:12:35.000Z,99535.61
2022-12-11T11:17:40.000Z,99524.15
2022-12-11T11:22:35.000Z,99519.86
2022-12-11T11:27:34.000Z,99516.96
2022-12-11T11:32:35.000Z,99512.69
2022-12-11T11:37:35.000Z,99509.08
2022-12-11T11:42:34.000Z,99517.68
2022-12-11T11:47:35.000Z,99515.49
2022-12-11T11:52:35.000Z,99512.16
2022-12-11T11:57:35.000Z,99510.52
2022-12-11T12:02:35.000Z,99513.67
2022-12-11T12:07:34.000Z,99521.66
2022-12-11T12:12:42.000Z,99521.06
2022-12-11T12:17:35.000Z,99524.23
2022-12-11T12:22:35.000Z,99524.23
2022-12-11T12:28:01.000Z,99529.6
2022-12-11T12:32:35.000Z,99535.5
2022-12-11T12:37:34.000Z,99536.54
2022-12-11T12:42:34.000Z,99528.59
2022-12-11T12:47:35.000Z,99537.02
2022-12-11T12:52:34.000Z,99535.62
2022-12-11T12:57:35.000Z,99536.02
2022-12-11T13:02:34.000Z,99534.14
2022-12-11T13:07:35.000Z,99536.6
2022-12-11T13:12:35.000Z,99538.56
2022-12-11T13:17:34.000Z,99533.23
2022-12-11T13:22:35.000Z,99520.65
2022-12-11T13:27:34.000Z,99520.65
2022-12-11T13:32:35.000Z,99521.33
2022-12-11T13:37:35.000Z,99500.3
2022-12-11T13:42:34.000Z,99511.47
2022-12-11T13:47:34.000Z,99509.62
2022-12-11T13:52:34.000Z,99492.77
2022-12-11T13:57:35.000Z,99488.54
2022-12-11T14:02:34.000Z,99479.05
2022-12-11T14:07:35.000Z,99472.85
2022-12-11T14:12:34.000Z,99477.37
2022-12-11T14:17:35.000Z,99480.08
2022-12-11T14:22:34.000Z,99479.69
2022-12-11T14:32:35.000Z,99453.44
2022-12-11T14:37:35.000Z,99439.81
2022-12-11T14:42:34.000Z,99436.52
2022-12-11T14:47:35.000Z,99443.98
2022-12-11T14:52:35.000Z,99453.18
2022-12-11T14:57:34.000Z,99463.57
2022-12-11T15:02:35.000Z,99455.04
2022-12-11T15:07:34.000Z,99446.22
2022-12-11T15:12:35.000Z,99448.22
2022-12-11T15:17:34.000Z,99450.28
2022-12-11T15:22:35.000Z,99446.15
2022-12-11T15:27:34.000Z,99427.58
2022-12-11T15:32:35.000Z,99400.39
2022-12-11T15:37:34.000Z,99400.39
2022-12-11T15:42:35.000Z,99380.57
2022-12-11T15:47:34.000Z,99365.23
2022-12-11T15:52:35.000Z,99342.52
2022-12-11T15:57:34.000Z,99334.52
2022-12-11T16:02:35.000Z,99333.89
2022-12-11T16:07:34.000Z,99345.93
2022-12-11T16:12:34.000Z,99352.31
2022-12-11T16:17:35.000Z,99360.68
2022-12-11T16:22:34.000Z,99343.32
2022-12-11T16:27:35.000Z,99328.43
2022-12-11T16:32:35.000Z,99315.41
2022-12-11T16:37:34.000Z,99310.9
2022-12-11T16:42:35.000Z,99301.81
2022-12-11T16:47:34.000Z,99295.07
2022-12-11T16:52:35.000Z,99295.07
2022-12-11T16:57:34.000Z,99299.66
2022-12-11T17:02:35.000Z,99306.28
2022-12-11T17:07:35.000Z,99307.92
2022-12-11T17:12:34.000Z,99290
2022-12-11T17:17:34.000Z,99289.33
2022-12-11T17:22:35.000Z,99282.92
2022-12-11T17:27:35.000Z,99263.25
2022-12-11T17:32:35.000Z,99241.91
2022-12-11T17:37:35.000Z,99225.58
2022-12-11T17:42:35.000Z,99211.16
2022-12-11T17:47:35.000Z,99202.98
2022-12-11T17:52:40.000Z,99194.33
2022-12-11T17:57:35.000Z,99192.45
2022-12-11T18:02:34.000Z,99189.17
2022-12-11T18:07:35.000Z,99189.17
2022-12-11T18:12:34.000Z,99181.18
2022-12-11T18:17:35.000Z,99183.59
2022-12-11T18:22:35.000Z,99184.12
2022-12-11T18:27:34.000Z,99173.23
2022-12-11T18:32:35.000Z,99143.7
2022-12-11T18:37:38.000Z,99119.93
2022-12-11T18:42:43.000Z,99116.84
2022-12-11T18:47:35.000Z,99119.62
2022-12-11T18:52:35.000Z,99105.76
2022-12-11T18:57:35.000Z,99135.51
2022-12-11T19:02:35.000Z,99164.54
2022-12-11T19:07:35.000Z,99171.56
2022-12-11T19:12:34.000Z,99174.42
2022-12-11T19:17:34.000Z,99166.66
2022-12-11T19:22:34.000Z,99166.66
2022-12-11T19:27:35.000Z,99153.46
2022-12-11T19:42:35.000Z,99145.1
2022-12-11T19:47:35.000Z,99144.61
2022-12-11T19:52:35.000Z,99138.79
2022-12-11T19:57:35.000Z,99133.69
2022-12-11T20:02:34.000Z,99134.74
2022-12-11T20:07:40.000Z,99122.55
2022-12-11T20:12:34.000Z,99113.64
2022-12-11T20:17:34.000Z,99112.13
2022-12-11T20:22:35.000Z,99109.36
2022-12-11T20:27:35.000Z,99107.24
2022-12-11T20:32:35.000Z,99104.77
2022-12-11T20:37:34.000Z,99097.11
2022-12-11T20:42:35.000Z,99084.01
2022-12-11T20:47:35.000Z,99079.08
2022-12-11T20:52:35.000Z,99079.08
2022-12-11T20:57:35.000Z,99064.28
2022-12-11T21:02:35.000Z,99053.85
2022-12-11T21:07:34.000Z,99043.06
2022-12-11T21:12:41.000Z,99030.27
2022-12-11T21:17:35.000Z,99021.57
2022-12-11T21:22:35.000Z,99012.24
2022-12-11T21:27:35.000Z,98996.66
2022-12-11T21:32:34.000Z,98988.27
2022-12-11T21:37:35.000Z,98982.6
2022-12-11T21:42:34.000Z,98974.98
2022-12-11T21:47:34.000Z,98960.6
2022-12-11T21:52:35.000Z,98948.37
2022-12-11T21:57:37.000Z,98937.08
2022-12-11T22:02:35.000Z,98937.08
2022-12-11T22:07:34.000Z,98941.85
2022-12-11T22:12:34.000Z,98922.18
2022-12-11T22:22:34.000Z,98899.1
2022-12-11T22:27:35.000Z,98893.41
2022-12-11T22:32:34.000Z,98886.79
2022-12-11T22:37:35.000Z,98873.47
2022-12-11T22:42:35.000Z,98863.47
2022-12-11T22:47:35.000Z,98854.69
2022-12-11T22:52:35.000Z,98854.69
2022-12-11T22:57:35.000Z,98840.92
2022-12-11T23:02:34.000Z,98833.1
2022-12-11T23:07:35.000Z,98824.26
2022-12-11T23:12:34.000Z,98813.74
2022-12-11T23:17:34.000Z,98798.04
2022-12-11T23:22:35.000Z,98790.06
2022-12-11T23:27:34.000Z,98774.68
2022-12-11T23:32:34.000Z,98778.74
2022-12-11T23:37:35.000Z,98773.38
2022-12-11T23:42:34.000Z,98769.07
2022-12-11T23:47:35.000Z,98755.14
2022-12-11T23:52:34.000Z,98737.28
2022-12-11T23:57:35.000Z,98726.16
